Usk, WA

6:03 AM PST on December 27, 2014 (GMT -0800)
Felts | Change Station
CLOSE
Current Station
Airport
Location: Spokane Felts,
Elevation: 1952 ft
Nearby Weather Stations
Active Advisory: Winter Storm Warning

Elev 1952 ft 47.68 °N, 117.32 °W | Updated 10 minutes ago

Overcast
Overcast
29 °F
Feels Like 29 °F
N
0
Wind Variable Wind from North

Today
High -- | Low -- °F
--% Chance of Precip.
Yesterday
High -- | Low -- °F
Precip. -- in
7:39 AM 4:01 PM
Waxing Crescent, 37% visible
Pressure 30.26 in
Visibility 5.0 miles
Clouds Scattered Clouds 2000 ft
Overcast 2700 ft
Dew Point 26 °F
Humidity 89%
Rainfall 0.00 in
Snow Depth Not available.
UV 0 out of 12
Pollen .10 out of 12
Air Quality Not available.
Flu Activity Not available.
METAR KSFF 271353Z AUTO 00000KT 5SM BR SCT020 OVC027 M02/M03 A3020 RMK AO2 SLP247 T10171033

More Conditions Fewer Conditions

Pressure 30.26 in
Visibility 5.0 miles
Clouds Scattered Clouds 2000 ft
Overcast 2700 ft
Dew Point 26 °F
Humidity 89%
Rainfall 0.00 in
Snow Depth Not available.
UV 0 out of 12
Pollen .10 out of 12
Air Quality Not available.
Flu Activity Not available.
METAR KSFF 271353Z AUTO 00000KT 5SM BR SCT020 OVC027 M02/M03 A3020 RMK AO2 SLP247 T10171033

More Conditions Fewer Conditions

10-Day Weather Forecast

Almanac

Astronomy

Dec. 27, 2014 Rise Set
Actual Time
Civil Twilight
Nautical Twilight
Astronomical Twilight
Moon
Length of Visible Light
Length of Day
Tomorrow will be .
, % of the Moon is Illuminated

Today's Extremes

State Highs State Lows

Community

WunderPhotos

Upload Photos

1,780,905 photos uploaded!

WunderBlogs® & News

Nearby

Air Quality

  Air Quality AQ Index Pollutant
Not available.

Snow Depth

Station Depth Elevation

Earthquake Activity

City Distance Mag. Time & Date
Minimum magnitude displayed is 2.5.

Coastal Water Temperatures

Place Temperature

Nearby Weather Stations